createdAt,value
2019-03-03T00:01:37.868Z,10.32
2019-03-03T00:04:18.986Z,9.18
2019-03-03T00:06:59.571Z,8.80
2019-03-03T00:09:39.979Z,14.93
2019-03-03T00:12:20.508Z,13.32
2019-03-03T00:15:01.709Z,10.43
2019-03-03T00:17:42.243Z,11.38
2019-03-03T00:23:05.351Z,9.60
2019-03-03T00:25:46.215Z,9.43
2019-03-03T00:28:27.027Z,9.88
2019-03-03T00:31:07.758Z,9.23
2019-03-03T00:33:48.235Z,11.25
2019-03-03T00:36:47.879Z,12.23
2019-03-03T00:42:39.723Z,10.32
2019-03-03T00:45:36.247Z,9.93
2019-03-03T00:48:32.761Z,11.25
2019-03-03T00:51:23.554Z,11.75
2019-03-03T00:54:26.644Z,11.57
2019-03-03T00:57:15.714Z,7.95
2019-03-03T01:00:08.973Z,10.45
2019-03-03T01:03:10.167Z,10.05
2019-03-03T01:08:53.359Z,9.35
2019-03-03T01:15:00.882Z,7.30
2019-03-03T01:21:02.463Z,9.98
2019-03-03T01:24:03.586Z,10.93
2019-03-03T01:26:44.781Z,8.35
2019-03-03T01:29:25.286Z,8.28
2019-03-03T01:32:06.203Z,7.37
2019-03-03T01:34:46.853Z,7.90
2019-03-03T01:37:27.763Z,6.95
2019-03-03T01:40:11.586Z,8.50
2019-03-03T01:45:41.180Z,9.40
2019-03-03T01:51:07.571Z,7.40
2019-03-03T01:56:33.255Z,5.90
2019-03-03T01:59:15.339Z,7.62
2019-03-03T02:10:19.310Z,4.80
2019-03-03T02:15:45.471Z,9.10
2019-03-03T02:18:30.747Z,7.22
2019-03-03T02:24:00.699Z,6.70
2019-03-03T02:26:42.186Z,5.25
2019-03-03T02:40:39.933Z,6.30
2019-03-03T02:43:20.442Z,4.50
2019-03-03T02:46:01.095Z,10.53
2019-03-03T02:48:42.009Z,6.92
2019-03-03T02:51:22.717Z,6.83
2019-03-03T02:54:03.228Z,5.30
2019-03-03T02:56:43.606Z,6.75
2019-03-03T02:59:24.257Z,6.00
2019-03-03T03:02:09.549Z,7.50
2019-03-03T03:04:49.880Z,8.65
2019-03-03T03:07:42.675Z,7.05
2019-03-03T03:10:42.421Z,5.90
2019-03-03T03:13:45.455Z,12.03
2019-03-03T03:16:37.275Z,6.58
2019-03-03T03:19:26.536Z,5.90
2019-03-03T03:22:14.721Z,5.30
2019-03-03T03:25:05.831Z,6.53
2019-03-03T03:28:03.890Z,6.85
2019-03-03T03:30:53.647Z,5.03
2019-03-03T03:33:53.184Z,7.12
2019-03-03T03:36:40.902Z,8.60
2019-03-03T03:39:46.788Z,9.98
2019-03-03T03:42:39.300Z,7.05
2019-03-03T03:45:25.865Z,11.05
2019-03-03T03:48:20.292Z,11.45
2019-03-03T03:51:20.527Z,9.48
2019-03-03T03:54:11.116Z,7.03
2019-03-03T03:56:57.693Z,5.00
2019-03-03T03:59:44.167Z,6.40
2019-03-03T04:02:43.559Z,8.25
2019-03-03T04:05:37.031Z,8.08
2019-03-03T04:08:23.683Z,11.08
2019-03-03T04:11:23.464Z,5.85
2019-03-03T04:14:15.667Z,12.55
2019-03-03T04:17:05.695Z,4.30
2019-03-03T04:20:05.864Z,8.33
2019-03-03T04:23:03.456Z,6.67
2019-03-03T04:26:03.727Z,12.78
2019-03-03T04:29:04.031Z,6.35
2019-03-03T04:32:04.363Z,9.85
2019-03-03T04:34:54.467Z,8.18
2019-03-03T04:37:54.095Z,8.85
2019-03-03T04:40:57.263Z,11.00
2019-03-03T04:43:47.714Z,11.55
2019-03-03T04:49:41.106Z,8.93
2019-03-03T04:52:26.897Z,11.80
2019-03-03T04:55:16.359Z,8.38
2019-03-03T04:58:16.499Z,10.28
2019-03-03T05:04:24.811Z,12.82
2019-03-03T05:21:47.276Z,13.20
2019-03-03T05:24:34.346Z,12.78
2019-03-03T05:27:09.931Z,13.05
2019-03-03T05:29:50.507Z,16.42
2019-03-03T05:32:31.183Z,15.05
2019-03-03T05:35:11.983Z,12.20
2019-03-03T05:37:52.863Z,14.98
2019-03-03T05:40:33.942Z,13.08
2019-03-03T05:43:14.683Z,16.02
2019-03-03T05:45:55.310Z,12.05
2019-03-03T05:48:36.126Z,13.08
2019-03-03T05:51:16.575Z,13.68
2019-03-03T05:53:57.036Z,18.48
2019-03-03T05:56:37.409Z,16.27
2019-03-03T05:59:17.802Z,11.60
2019-03-03T06:01:58.543Z,17.40
2019-03-03T06:04:40.006Z,12.82
2019-03-03T06:07:20.678Z,11.85
2019-03-03T06:10:01.905Z,19.77
2019-03-03T06:12:42.608Z,14.73
2019-03-03T06:15:23.439Z,13.35
2019-03-03T06:18:03.732Z,21.17
2019-03-03T06:20:44.302Z,10.15
2019-03-03T06:23:25.014Z,12.50
2019-03-03T06:26:05.406Z,17.40
2019-03-03T06:28:46.059Z,16.93
2019-03-03T06:31:26.527Z,11.78
2019-03-03T06:34:06.886Z,13.60
2019-03-03T06:36:47.638Z,14.40
2019-03-03T06:39:28.065Z,15.10
2019-03-03T06:42:08.805Z,18.52
2019-03-03T06:44:49.751Z,12.55
2019-03-03T06:47:30.114Z,17.48
2019-03-03T06:50:10.647Z,15.78
2019-03-03T06:52:51.474Z,13.55
2019-03-03T06:55:32.504Z,14.83
2019-03-03T06:58:13.099Z,15.83
2019-03-03T07:00:53.715Z,17.85
2019-03-03T07:03:34.196Z,18.02
2019-03-03T07:06:14.839Z,10.93
2019-03-03T07:08:55.370Z,17.87
2019-03-03T07:11:36.058Z,17.70
2019-03-03T07:14:16.931Z,17.30
2019-03-03T07:16:58.342Z,9.25
2019-03-03T07:19:38.766Z,9.88
2019-03-03T07:22:19.711Z,12.90
2019-03-03T07:25:00.325Z,17.25
2019-03-03T07:27:40.955Z,13.38
2019-03-03T07:30:21.340Z,9.70
2019-03-03T07:33:21.451Z,16.23
2019-03-03T07:36:02.338Z,12.05
2019-03-03T07:38:43.055Z,13.98
2019-03-03T07:41:23.631Z,13.78
2019-03-03T07:44:04.359Z,13.10
2019-03-03T07:46:45.353Z,10.65
2019-03-03T07:49:25.906Z,15.25
2019-03-03T07:52:06.583Z,15.28
2019-03-03T07:54:47.310Z,14.68
2019-03-03T07:57:27.970Z,15.15
2019-03-03T08:00:08.512Z,15.03
2019-03-03T08:02:48.955Z,13.22
2019-03-03T08:05:29.662Z,15.30
2019-03-03T08:10:59.791Z,13.55
2019-03-03T08:13:41.415Z,10.90
2019-03-03T08:19:04.970Z,15.48
2019-03-03T08:24:28.135Z,7.62
2019-03-03T08:27:08.896Z,10.60
2019-03-03T08:29:49.471Z,17.80
2019-03-03T08:32:30.291Z,16.15
2019-03-03T08:35:10.679Z,15.35
2019-03-03T08:40:33.275Z,15.70
2019-03-03T08:49:36.566Z,13.58
2019-03-03T08:52:26.487Z,15.85
2019-03-03T08:55:26.111Z,13.83
2019-03-03T08:58:11.881Z,12.88
2019-03-03T09:03:57.477Z,17.85
2019-03-03T09:15:39.435Z,11.03
2019-03-03T09:18:39.382Z,15.28
2019-03-03T09:21:36.227Z,16.80
2019-03-03T09:27:28.279Z,11.48
2019-03-03T09:30:34.379Z,15.75
2019-03-03T09:33:37.517Z,12.90
2019-03-03T09:36:29.268Z,16.55
2019-03-03T09:39:28.883Z,11.00
2019-03-03T09:42:16.440Z,17.75
2019-03-03T09:45:16.239Z,10.85
2019-03-03T09:48:18.790Z,15.83
2019-03-03T09:51:14.848Z,12.33
2019-03-03T09:57:26.639Z,10.58
2019-03-03T10:00:33.571Z,13.50
2019-03-03T10:03:40.735Z,12.75
2019-03-03T10:06:47.702Z,13.30
2019-03-03T10:09:54.635Z,10.82
2019-03-03T10:16:01.407Z,8.65
2019-03-03T10:18:54.770Z,12.98
2019-03-03T10:21:43.498Z,11.63
2019-03-03T10:24:43.727Z,13.20
2019-03-03T10:27:47.051Z,10.58
2019-03-03T10:33:53.930Z,9.75
2019-03-03T10:36:46.882Z,8.80
2019-03-03T10:39:47.015Z,13.28
2019-03-03T10:42:32.673Z,9.80
2019-03-03T11:11:16.595Z,12.58
2019-03-03T11:14:16.411Z,10.60
2019-03-03T11:19:52.010Z,11.70
2019-03-03T11:22:52.039Z,11.80
2019-03-03T11:25:51.495Z,6.20
2019-03-03T11:28:38.370Z,12.20
2019-03-03T11:34:39.943Z,6.28
2019-03-03T11:37:40.441Z,8.10
2019-03-03T11:40:29.267Z,9.08
2019-03-03T11:43:15.327Z,5.85
2019-03-03T11:46:17.799Z,10.43
2019-03-03T11:49:19.212Z,12.40
2019-03-03T11:52:22.187Z,9.63
2019-03-03T11:55:22.506Z,11.75
2019-03-03T11:58:32.102Z,10.10
2019-03-03T12:01:13.184Z,5.87
2019-03-03T12:04:08.586Z,7.10
2019-03-03T12:06:59.095Z,9.50
2019-03-03T12:09:52.415Z,9.28
2019-03-03T12:12:45.411Z,8.98
2019-03-03T12:15:36.499Z,7.12
2019-03-03T12:18:24.715Z,10.30
2019-03-03T12:21:24.255Z,8.05
2019-03-03T12:30:05.607Z,5.20
2019-03-03T12:32:58.147Z,7.67
2019-03-03T12:35:45.287Z,9.83
2019-03-03T12:44:28.745Z,7.47
2019-03-03T12:47:09.100Z,13.32
2019-03-03T12:52:35.239Z,6.22
2019-03-03T12:58:24.947Z,8.60
2019-03-03T13:01:09.294Z,4.22
2019-03-03T13:48:57.972Z,13.58
2019-03-03T13:51:38.519Z,2.87
2019-03-03T13:54:19.022Z,7.70
2019-03-03T13:56:59.764Z,7.05
2019-03-03T13:59:40.341Z,5.85
2019-03-03T14:02:21.575Z,6.22
2019-03-03T14:05:02.093Z,7.35
2019-03-03T14:07:42.816Z,5.97
2019-03-03T14:10:23.591Z,6.30
2019-03-03T14:13:04.529Z,7.12
2019-03-03T14:15:45.770Z,6.65
2019-03-03T14:18:26.381Z,12.40
2019-03-03T14:21:07.142Z,6.85
2019-03-03T14:23:49.488Z,7.35
2019-03-03T14:26:30.850Z,7.20
2019-03-03T14:29:11.534Z,4.60
2019-03-03T14:31:52.241Z,6.50
2019-03-03T14:34:33.034Z,8.13
2019-03-03T14:37:13.727Z,7.67
2019-03-03T14:39:54.147Z,7.47
2019-03-03T14:42:34.921Z,5.00
2019-03-03T14:45:15.914Z,7.78
2019-03-03T14:47:56.850Z,10.18
2019-03-03T14:50:37.639Z,5.22
2019-03-03T14:53:17.979Z,9.85
2019-03-03T14:55:58.683Z,5.30
2019-03-03T14:58:39.562Z,9.73
2019-03-03T15:01:20.199Z,3.87
2019-03-03T15:04:01.023Z,5.92
2019-03-03T15:06:41.534Z,4.50
2019-03-03T15:09:23.116Z,7.62
2019-03-03T15:12:03.869Z,7.17
2019-03-03T15:14:44.611Z,7.08
2019-03-03T15:17:25.776Z,5.10
2019-03-03T15:20:06.933Z,5.03
2019-03-03T15:22:47.884Z,4.20
2019-03-03T15:25:28.936Z,4.25
2019-03-03T15:28:10.067Z,5.17
2019-03-03T15:30:50.751Z,4.17
2019-03-03T15:33:31.492Z,5.10
2019-03-03T15:36:12.607Z,6.35
2019-03-03T15:38:54.716Z,8.00
2019-03-03T15:41:35.854Z,4.10
2019-03-03T15:44:16.709Z,6.87
2019-03-03T15:46:57.312Z,6.92
2019-03-03T15:49:37.882Z,7.25
2019-03-03T15:52:18.804Z,3.50
2019-03-03T15:54:59.455Z,8.05
2019-03-03T15:57:40.447Z,5.83
2019-03-03T16:00:22.071Z,7.85
2019-03-03T16:03:03.023Z,9.18
2019-03-03T16:05:43.867Z,7.83
2019-03-03T16:08:24.356Z,6.92
2019-03-03T16:11:05.100Z,4.67
2019-03-03T16:13:46.036Z,4.62
2019-03-03T16:16:26.934Z,5.67
2019-03-03T16:19:07.427Z,9.60
2019-03-03T16:21:51.143Z,11.55
2019-03-03T16:24:32.235Z,8.93
2019-03-03T16:27:12.943Z,8.98
2019-03-03T16:29:53.183Z,8.95
2019-03-03T16:32:33.856Z,8.58
2019-03-03T16:35:15.015Z,5.08
2019-03-03T16:40:52.050Z,12.03
2019-03-03T16:43:33.259Z,10.68
2019-03-03T16:49:03.924Z,4.37
2019-03-03T16:51:46.196Z,5.05
2019-03-03T16:54:26.473Z,6.50
2019-03-03T16:57:07.164Z,7.78
2019-03-03T16:59:47.918Z,5.53
2019-03-03T17:02:28.470Z,4.50
2019-03-03T17:05:09.138Z,7.00
2019-03-03T17:07:49.911Z,8.75
2019-03-03T17:10:30.763Z,4.37
2019-03-03T17:18:49.818Z,7.50
2019-03-03T17:21:30.171Z,10.55
2019-03-03T17:24:10.934Z,4.87
2019-03-03T17:26:52.011Z,8.55
2019-03-03T17:29:32.570Z,8.25
2019-03-03T17:32:13.255Z,10.25
2019-03-03T17:34:54.190Z,8.28
2019-03-03T17:37:35.567Z,4.20
2019-03-03T17:40:16.239Z,8.65
2019-03-03T17:42:57.154Z,4.95
2019-03-03T17:45:37.979Z,11.38
2019-03-03T17:48:19.176Z,9.95
2019-03-03T17:50:59.756Z,10.78
2019-03-03T17:53:40.299Z,6.22
2019-03-03T17:56:20.832Z,4.60
2019-03-03T17:59:01.709Z,10.13
2019-03-03T18:01:42.315Z,3.70
2019-03-03T18:04:23.339Z,7.95
2019-03-03T18:07:03.975Z,4.40
2019-03-03T18:09:44.955Z,9.45
2019-03-03T18:12:25.299Z,8.95
2019-03-03T18:15:06.275Z,8.55
2019-03-03T18:17:46.851Z,9.23
2019-03-03T18:20:27.478Z,4.50
2019-03-03T18:23:07.972Z,11.18
2019-03-03T18:25:49.220Z,10.20
2019-03-03T18:28:29.822Z,8.13
2019-03-03T18:31:10.741Z,7.92
2019-03-03T18:33:51.938Z,5.55
2019-03-03T18:36:32.914Z,6.75
2019-03-03T18:39:14.087Z,13.58
2019-03-03T18:41:54.586Z,4.75
2019-03-03T18:44:35.492Z,7.03
2019-03-03T18:47:16.280Z,10.78
2019-03-03T18:49:57.395Z,5.67
2019-03-03T18:52:37.762Z,5.67
2019-03-03T18:55:18.492Z,8.38
2019-03-03T18:57:59.291Z,9.00
2019-03-03T19:00:39.951Z,7.87
2019-03-03T19:03:21.683Z,4.62
2019-03-03T19:06:02.206Z,6.87
2019-03-03T19:08:42.907Z,8.90
2019-03-03T19:11:23.687Z,4.42
2019-03-03T19:14:04.699Z,8.30
2019-03-03T19:16:45.259Z,11.30
2019-03-03T19:19:25.607Z,6.10
2019-03-03T19:22:06.671Z,6.00
2019-03-03T19:24:47.357Z,7.05
2019-03-03T19:27:27.761Z,6.20
2019-03-03T19:30:08.202Z,9.40
2019-03-03T19:32:48.736Z,11.65
2019-03-03T19:35:29.515Z,7.42
2019-03-03T19:38:10.079Z,12.98
2019-03-03T19:40:50.858Z,6.25
2019-03-03T19:43:31.506Z,9.40
2019-03-03T19:46:12.367Z,4.87
2019-03-03T19:48:53.125Z,9.95
2019-03-03T19:51:33.978Z,5.53
2019-03-03T19:54:15.107Z,5.95
2019-03-03T19:56:55.775Z,8.65
2019-03-03T19:59:36.370Z,5.00
2019-03-03T20:02:20.239Z,10.88
2019-03-03T20:05:01.362Z,8.33
2019-03-03T20:07:42.091Z,9.35
2019-03-03T20:10:22.586Z,6.62
2019-03-03T20:13:03.407Z,7.10
2019-03-03T20:18:25.916Z,7.92
2019-03-03T20:23:49.538Z,6.25
2019-03-03T20:34:47.960Z,10.23
2019-03-03T20:59:59.914Z,6.78
2019-03-03T21:02:40.999Z,9.33
2019-03-03T21:05:21.247Z,6.28
2019-03-03T21:08:01.951Z,5.20
2019-03-03T21:10:43.170Z,7.85
2019-03-03T21:13:24.391Z,5.97
2019-03-03T21:16:04.971Z,6.00
2019-03-03T21:18:45.895Z,9.43
2019-03-03T21:21:26.283Z,11.00
2019-03-03T21:24:07.175Z,7.65
2019-03-03T21:26:47.762Z,4.85
2019-03-03T21:29:28.318Z,4.75
2019-03-03T21:32:09.091Z,4.85
2019-03-03T21:34:49.727Z,9.68
2019-03-03T21:37:30.634Z,4.72
2019-03-03T21:40:11.370Z,7.45
2019-03-03T21:42:52.101Z,4.80
2019-03-03T21:45:32.904Z,9.18
2019-03-03T21:48:13.872Z,6.47
2019-03-03T21:50:54.215Z,4.70
2019-03-03T21:53:35.043Z,7.35
2019-03-03T21:56:16.303Z,5.65
2019-03-03T21:58:57.491Z,5.10
2019-03-03T22:01:37.959Z,6.92
2019-03-03T22:04:19.043Z,6.28
2019-03-03T22:06:59.651Z,4.72
2019-03-03T22:09:40.399Z,5.40
2019-03-03T22:12:21.209Z,4.47
2019-03-03T22:15:01.540Z,8.18
2019-03-03T22:17:40.532Z,6.70
2019-03-03T22:20:28.371Z,5.40
2019-03-03T22:23:09.264Z,5.10
2019-03-03T22:25:50.182Z,6.40
2019-03-03T22:28:31.059Z,3.65
2019-03-03T22:31:12.097Z,5.58
2019-03-03T22:33:52.708Z,5.53
2019-03-03T22:36:33.564Z,9.70
2019-03-03T22:39:14.074Z,4.15
2019-03-03T22:41:55.271Z,4.67
2019-03-03T22:44:38.111Z,5.17
2019-03-03T22:47:18.591Z,6.78
2019-03-03T22:49:59.099Z,2.22
2019-03-03T22:52:39.675Z,5.22
2019-03-03T22:55:20.576Z,5.67
2019-03-03T22:57:59.746Z,2.83
2019-03-03T23:01:07.219Z,2.55
2019-03-03T23:04:14.387Z,4.65
2019-03-03T23:07:13.594Z,4.95
2019-03-03T23:10:11.303Z,3.80
2019-03-03T23:12:51.679Z,6.22
2019-03-03T23:15:35.919Z,5.78
2019-03-03T23:18:34.509Z,4.75
2019-03-03T23:21:36.192Z,4.97
2019-03-03T23:24:22.275Z,6.67
2019-03-03T23:26:51.526Z,5.53
2019-03-03T23:29:20.082Z,5.45
2019-03-03T23:31:49.038Z,5.83
2019-03-03T23:34:18.039Z,6.65
2019-03-03T23:36:47.087Z,6.17
2019-03-03T23:39:15.987Z,4.25
2019-03-03T23:41:44.846Z,5.70
2019-03-03T23:44:14.066Z,4.72
2019-03-03T23:46:42.615Z,7.28
2019-03-03T23:49:11.594Z,4.40
2019-03-03T23:51:40.190Z,8.53
2019-03-03T23:54:09.062Z,5.72
2019-03-03T23:56:37.906Z,7.45
2019-03-03T23:59:06.694Z,7.03
